sensor_id;sensor_type;location;lat;lon;timestamp;P1;durP1;ratioP1;P2;durP2;ratioP2
59273;SDS011;45044;41.572;24.730;2023-09-08T00:00:24;6.28;;;3.70;;
59273;SDS011;45044;41.572;24.730;2023-09-08T00:02:51;6.68;;;3.90;;
59273;SDS011;45044;41.572;24.730;2023-09-08T00:05:18;6.80;;;3.67;;
59273;SDS011;45044;41.572;24.730;2023-09-08T00:07:44;7.18;;;4.50;;
59273;SDS011;45044;41.572;24.730;2023-09-08T00:10:11;6.75;;;3.78;;
59273;SDS011;45044;41.572;24.730;2023-09-08T00:12:38;7.20;;;4.50;;
59273;SDS011;45044;41.572;24.730;2023-09-08T00:15:06;6.75;;;4.20;;
59273;SDS011;45044;41.572;24.730;2023-09-08T00:17:33;6.97;;;3.90;;
59273;SDS011;45044;41.572;24.730;2023-09-08T00:20:00;7.88;;;4.43;;
59273;SDS011;45044;41.572;24.730;2023-09-08T00:22:27;7.97;;;4.22;;
59273;SDS011;45044;41.572;24.730;2023-09-08T00:24:53;6.30;;;4.10;;
59273;SDS011;45044;41.572;24.730;2023-09-08T00:27:21;7.28;;;3.95;;
59273;SDS011;45044;41.572;24.730;2023-09-08T00:29:48;6.65;;;3.90;;
59273;SDS011;45044;41.572;24.730;2023-09-08T00:32:15;7.55;;;4.32;;
59273;SDS011;45044;41.572;24.730;2023-09-08T00:34:42;9.75;;;4.85;;
59273;SDS011;45044;41.572;24.730;2023-09-08T00:37:09;9.02;;;4.30;;
59273;SDS011;45044;41.572;24.730;2023-09-08T00:39:37;7.07;;;4.53;;
59273;SDS011;45044;41.572;24.730;2023-09-08T00:42:04;6.68;;;3.65;;
59273;SDS011;45044;41.572;24.730;2023-09-08T00:44:31;6.85;;;4.00;;
59273;SDS011;45044;41.572;24.730;2023-09-08T00:46:58;6.60;;;3.80;;
59273;SDS011;45044;41.572;24.730;2023-09-08T00:49:25;6.47;;;3.97;;
59273;SDS011;45044;41.572;24.730;2023-09-08T00:51:52;9.25;;;4.53;;
59273;SDS011;45044;41.572;24.730;2023-09-08T00:54:19;8.20;;;4.05;;
59273;SDS011;45044;41.572;24.730;2023-09-08T00:56:46;8.02;;;4.65;;
59273;SDS011;45044;41.572;24.730;2023-09-08T00:59:15;8.98;;;5.25;;
59273;SDS011;45044;41.572;24.730;2023-09-08T01:01:42;9.68;;;4.72;;
59273;SDS011;45044;41.572;24.730;2023-09-08T01:04:09;6.72;;;4.75;;
59273;SDS011;45044;41.572;24.730;2023-09-08T01:06:36;7.65;;;4.00;;
59273;SDS011;45044;41.572;24.730;2023-09-08T01:09:03;7.63;;;4.55;;
59273;SDS011;45044;41.572;24.730;2023-09-08T01:11:31;7.05;;;4.00;;
59273;SDS011;45044;41.572;24.730;2023-09-08T01:13:58;6.60;;;4.15;;
59273;SDS011;45044;41.572;24.730;2023-09-08T01:16:25;6.43;;;3.92;;
59273;SDS011;45044;41.572;24.730;2023-09-08T01:18:52;7.25;;;4.00;;
59273;SDS011;45044;41.572;24.730;2023-09-08T01:26:57;7.90;;;4.65;;
59273;SDS011;45044;41.572;24.730;2023-09-08T01:29:25;8.70;;;4.90;;
59273;SDS011;45044;41.572;24.730;2023-09-08T01:31:52;9.68;;;5.20;;
59273;SDS011;45044;41.572;24.730;2023-09-08T01:34:19;7.75;;;5.60;;
59273;SDS011;45044;41.572;24.730;2023-09-08T01:36:46;7.43;;;4.03;;
59273;SDS011;45044;41.572;24.730;2023-09-08T01:39:13;7.15;;;4.50;;
59273;SDS011;45044;41.572;24.730;2023-09-08T01:41:40;6.47;;;4.32;;
59273;SDS011;45044;41.572;24.730;2023-09-08T01:44:06;6.43;;;4.10;;
59273;SDS011;45044;41.572;24.730;2023-09-08T01:46:36;7.03;;;4.25;;
59273;SDS011;45044;41.572;24.730;2023-09-08T01:49:05;6.85;;;3.63;;
59273;SDS011;45044;41.572;24.730;2023-09-08T01:51:32;7.45;;;3.95;;
59273;SDS011;45044;41.572;24.730;2023-09-08T01:53:58;6.55;;;4.07;;
59273;SDS011;45044;41.572;24.730;2023-09-08T01:56:25;6.22;;;3.80;;
59273;SDS011;45044;41.572;24.730;2023-09-08T01:58:53;5.95;;;3.65;;
59273;SDS011;45044;41.572;24.730;2023-09-08T02:01:19;6.80;;;4.03;;
59273;SDS011;45044;41.572;24.730;2023-09-08T02:03:46;6.97;;;4.20;;
59273;SDS011;45044;41.572;24.730;2023-09-08T02:06:13;8.73;;;4.13;;
59273;SDS011;45044;41.572;24.730;2023-09-08T02:08:39;8.60;;;4.25;;
59273;SDS011;45044;41.572;24.730;2023-09-08T02:11:06;6.65;;;3.72;;
59273;SDS011;45044;41.572;24.730;2023-09-08T02:13:33;6.63;;;4.15;;
59273;SDS011;45044;41.572;24.730;2023-09-08T02:15:59;6.25;;;3.53;;
59273;SDS011;45044;41.572;24.730;2023-09-08T02:18:26;6.95;;;3.85;;
59273;SDS011;45044;41.572;24.730;2023-09-08T02:20:54;7.72;;;4.20;;
59273;SDS011;45044;41.572;24.730;2023-09-08T02:23:21;6.85;;;4.20;;
59273;SDS011;45044;41.572;24.730;2023-09-08T02:25:48;6.60;;;3.60;;
59273;SDS011;45044;41.572;24.730;2023-09-08T02:28:14;7.25;;;4.10;;
59273;SDS011;45044;41.572;24.730;2023-09-08T02:30:41;5.88;;;3.75;;
59273;SDS011;45044;41.572;24.730;2023-09-08T02:33:08;5.80;;;3.65;;
59273;SDS011;45044;41.572;24.730;2023-09-08T02:35:36;6.90;;;3.65;;
59273;SDS011;45044;41.572;24.730;2023-09-08T02:38:05;7.10;;;3.60;;
59273;SDS011;45044;41.572;24.730;2023-09-08T02:40:32;6.68;;;3.95;;
59273;SDS011;45044;41.572;24.730;2023-09-08T02:43:01;6.75;;;3.85;;
59273;SDS011;45044;41.572;24.730;2023-09-08T02:45:29;7.40;;;3.97;;
59273;SDS011;45044;41.572;24.730;2023-09-08T02:47:58;7.75;;;3.88;;
59273;SDS011;45044;41.572;24.730;2023-09-08T02:50:25;6.65;;;3.85;;
59273;SDS011;45044;41.572;24.730;2023-09-08T02:52:52;7.97;;;3.88;;
59273;SDS011;45044;41.572;24.730;2023-09-08T02:55:19;7.82;;;4.03;;
59273;SDS011;45044;41.572;24.730;2023-09-08T02:57:46;7.40;;;4.40;;
59273;SDS011;45044;41.572;24.730;2023-09-08T03:00:13;6.00;;;3.83;;
59273;SDS011;45044;41.572;24.730;2023-09-08T03:02:40;7.78;;;4.45;;
59273;SDS011;45044;41.572;24.730;2023-09-08T03:05:07;7.65;;;4.10;;
59273;SDS011;45044;41.572;24.730;2023-09-08T03:07:34;6.85;;;4.15;;
59273;SDS011;45044;41.572;24.730;2023-09-08T03:10:03;7.45;;;4.40;;
59273;SDS011;45044;41.572;24.730;2023-09-08T03:12:31;7.13;;;4.40;;
59273;SDS011;45044;41.572;24.730;2023-09-08T03:14:58;9.07;;;4.70;;
59273;SDS011;45044;41.572;24.730;2023-09-08T03:17:24;6.35;;;3.80;;
59273;SDS011;45044;41.572;24.730;2023-09-08T03:19:51;6.60;;;4.38;;
59273;SDS011;45044;41.572;24.730;2023-09-08T03:22:18;6.22;;;4.90;;
59273;SDS011;45044;41.572;24.730;2023-09-08T03:24:45;6.43;;;4.40;;
59273;SDS011;45044;41.572;24.730;2023-09-08T03:27:11;8.10;;;4.38;;
59273;SDS011;45044;41.572;24.730;2023-09-08T03:29:38;6.65;;;4.03;;
59273;SDS011;45044;41.572;24.730;2023-09-08T03:32:05;7.85;;;4.10;;
59273;SDS011;45044;41.572;24.730;2023-09-08T03:34:32;7.55;;;4.25;;
59273;SDS011;45044;41.572;24.730;2023-09-08T03:36:59;8.45;;;4.30;;
59273;SDS011;45044;41.572;24.730;2023-09-08T03:39:25;7.65;;;4.63;;
59273;SDS011;45044;41.572;24.730;2023-09-08T03:41:52;7.18;;;4.63;;
59273;SDS011;45044;41.572;24.730;2023-09-08T03:44:19;6.85;;;4.03;;
59273;SDS011;45044;41.572;24.730;2023-09-08T03:46:46;7.05;;;4.30;;
59273;SDS011;45044;41.572;24.730;2023-09-08T03:49:13;9.55;;;5.40;;
59273;SDS011;45044;41.572;24.730;2023-09-08T03:51:39;7.28;;;4.53;;
59273;SDS011;45044;41.572;24.730;2023-09-08T03:54:06;7.38;;;4.30;;
59273;SDS011;45044;41.572;24.730;2023-09-08T03:56:33;10.52;;;4.43;;
59273;SDS011;45044;41.572;24.730;2023-09-08T03:58:59;8.60;;;4.47;;
59273;SDS011;45044;41.572;24.730;2023-09-08T04:01:26;8.15;;;5.05;;
59273;SDS011;45044;41.572;24.730;2023-09-08T04:03:53;7.55;;;5.00;;
59273;SDS011;45044;41.572;24.730;2023-09-08T04:06:20;8.13;;;4.78;;
59273;SDS011;45044;41.572;24.730;2023-09-08T04:08:50;8.15;;;4.90;;
59273;SDS011;45044;41.572;24.730;2023-09-08T04:11:17;8.38;;;5.07;;
59273;SDS011;45044;41.572;24.730;2023-09-08T04:13:44;11.13;;;5.40;;
59273;SDS011;45044;41.572;24.730;2023-09-08T04:16:10;8.40;;;5.25;;
59273;SDS011;45044;41.572;24.730;2023-09-08T04:18:37;8.50;;;5.65;;
59273;SDS011;45044;41.572;24.730;2023-09-08T04:21:06;10.93;;;5.10;;
59273;SDS011;45044;41.572;24.730;2023-09-08T04:23:34;10.90;;;6.20;;
59273;SDS011;45044;41.572;24.730;2023-09-08T04:26:01;9.07;;;5.28;;
59273;SDS011;45044;41.572;24.730;2023-09-08T04:28:28;8.57;;;5.35;;
59273;SDS011;45044;41.572;24.730;2023-09-08T04:30:55;8.23;;;4.95;;
59273;SDS011;45044;41.572;24.730;2023-09-08T04:33:23;8.13;;;5.18;;
59273;SDS011;45044;41.572;24.730;2023-09-08T04:35:50;9.57;;;5.00;;
59273;SDS011;45044;41.572;24.730;2023-09-08T04:38:17;9.27;;;5.25;;
59273;SDS011;45044;41.572;24.730;2023-09-08T04:40:46;7.07;;;4.57;;
59273;SDS011;45044;41.572;24.730;2023-09-08T04:43:13;8.43;;;5.30;;
59273;SDS011;45044;41.572;24.730;2023-09-08T04:45:40;8.70;;;5.90;;
59273;SDS011;45044;41.572;24.730;2023-09-08T04:48:07;8.90;;;5.60;;
59273;SDS011;45044;41.572;24.730;2023-09-08T04:50:34;12.45;;;5.78;;
59273;SDS011;45044;41.572;24.730;2023-09-08T04:53:01;8.55;;;5.63;;
59273;SDS011;45044;41.572;24.730;2023-09-08T04:55:28;11.15;;;6.10;;
59273;SDS011;45044;41.572;24.730;2023-09-08T04:57:55;9.13;;;6.22;;
59273;SDS011;45044;41.572;24.730;2023-09-08T05:00:21;8.90;;;5.97;;
59273;SDS011;45044;41.572;24.730;2023-09-08T05:02:48;9.20;;;6.47;;
59273;SDS011;45044;41.572;24.730;2023-09-08T05:05:15;11.32;;;6.00;;
59273;SDS011;45044;41.572;24.730;2023-09-08T05:07:42;11.35;;;6.63;;
59273;SDS011;45044;41.572;24.730;2023-09-08T05:10:09;11.57;;;7.03;;
59273;SDS011;45044;41.572;24.730;2023-09-08T05:12:36;11.60;;;7.30;;
59273;SDS011;45044;41.572;24.730;2023-09-08T05:15:03;12.35;;;7.03;;
59273;SDS011;45044;41.572;24.730;2023-09-08T05:17:36;12.38;;;7.72;;
59273;SDS011;45044;41.572;24.730;2023-09-08T05:20:03;11.77;;;6.75;;
59273;SDS011;45044;41.572;24.730;2023-09-08T05:22:30;12.75;;;6.57;;
59273;SDS011;45044;41.572;24.730;2023-09-08T05:24:57;12.73;;;6.90;;
59273;SDS011;45044;41.572;24.730;2023-09-08T05:27:24;11.52;;;6.25;;
59273;SDS011;45044;41.572;24.730;2023-09-08T05:29:51;10.52;;;6.22;;
59273;SDS011;45044;41.572;24.730;2023-09-08T05:32:18;11.82;;;6.13;;
59273;SDS011;45044;41.572;24.730;2023-09-08T05:34:44;9.75;;;6.22;;
59273;SDS011;45044;41.572;24.730;2023-09-08T05:37:11;9.77;;;5.90;;
59273;SDS011;45044;41.572;24.730;2023-09-08T05:39:38;10.38;;;5.72;;
59273;SDS011;45044;41.572;24.730;2023-09-08T05:42:05;10.57;;;6.03;;
59273;SDS011;45044;41.572;24.730;2023-09-08T05:44:32;10.77;;;6.50;;
59273;SDS011;45044;41.572;24.730;2023-09-08T05:46:59;13.25;;;6.70;;
59273;SDS011;45044;41.572;24.730;2023-09-08T05:49:26;10.32;;;6.55;;
59273;SDS011;45044;41.572;24.730;2023-09-08T05:51:53;11.32;;;6.65;;
59273;SDS011;45044;41.572;24.730;2023-09-08T05:54:20;13.38;;;7.32;;
59273;SDS011;45044;41.572;24.730;2023-09-08T05:56:46;10.43;;;6.03;;
59273;SDS011;45044;41.572;24.730;2023-09-08T05:59:13;9.20;;;6.05;;
59273;SDS011;45044;41.572;24.730;2023-09-08T06:01:40;9.27;;;5.82;;
59273;SDS011;45044;41.572;24.730;2023-09-08T06:04:07;11.70;;;6.57;;
59273;SDS011;45044;41.572;24.730;2023-09-08T06:06:34;11.35;;;6.68;;
59273;SDS011;45044;41.572;24.730;2023-09-08T06:09:01;12.55;;;6.97;;
59273;SDS011;45044;41.572;24.730;2023-09-08T06:11:28;9.07;;;6.00;;
59273;SDS011;45044;41.572;24.730;2023-09-08T06:13:54;8.55;;;5.55;;
59273;SDS011;45044;41.572;24.730;2023-09-08T06:16:26;10.60;;;6.30;;
59273;SDS011;45044;41.572;24.730;2023-09-08T06:18:53;13.02;;;6.13;;
59273;SDS011;45044;41.572;24.730;2023-09-08T06:21:19;11.68;;;6.32;;
59273;SDS011;45044;41.572;24.730;2023-09-08T06:23:46;11.57;;;6.60;;
59273;SDS011;45044;41.572;24.730;2023-09-08T06:26:14;10.05;;;5.88;;
59273;SDS011;45044;41.572;24.730;2023-09-08T06:28:40;9.90;;;4.90;;
59273;SDS011;45044;41.572;24.730;2023-09-08T06:31:09;8.00;;;4.30;;
59273;SDS011;45044;41.572;24.730;2023-09-08T06:33:36;6.90;;;4.13;;
59273;SDS011;45044;41.572;24.730;2023-09-08T06:36:03;6.68;;;4.10;;
59273;SDS011;45044;41.572;24.730;2023-09-08T06:38:30;6.95;;;4.05;;
59273;SDS011;45044;41.572;24.730;2023-09-08T06:40:58;6.75;;;4.10;;
59273;SDS011;45044;41.572;24.730;2023-09-08T06:43:25;5.50;;;3.88;;
59273;SDS011;45044;41.572;24.730;2023-09-08T06:45:52;5.72;;;4.05;;
59273;SDS011;45044;41.572;24.730;2023-09-08T06:48:18;5.88;;;3.80;;
59273;SDS011;45044;41.572;24.730;2023-09-08T06:50:45;7.38;;;4.50;;
59273;SDS011;45044;41.572;24.730;2023-09-08T06:53:12;7.32;;;4.30;;
59273;SDS011;45044;41.572;24.730;2023-09-08T06:55:39;6.82;;;4.20;;
59273;SDS011;45044;41.572;24.730;2023-09-08T06:58:10;6.72;;;4.43;;
59273;SDS011;45044;41.572;24.730;2023-09-08T07:00:38;7.03;;;3.88;;
59273;SDS011;45044;41.572;24.730;2023-09-08T07:03:06;7.38;;;3.90;;
59273;SDS011;45044;41.572;24.730;2023-09-08T07:05:34;5.53;;;3.60;;
59273;SDS011;45044;41.572;24.730;2023-09-08T07:08:02;7.35;;;3.90;;
59273;SDS011;45044;41.572;24.730;2023-09-08T07:10:28;6.18;;;3.97;;
59273;SDS011;45044;41.572;24.730;2023-09-08T07:12:55;6.47;;;3.95;;
59273;SDS011;45044;41.572;24.730;2023-09-08T07:15:22;5.40;;;3.35;;
59273;SDS011;45044;41.572;24.730;2023-09-08T07:17:49;6.05;;;3.83;;
59273;SDS011;45044;41.572;24.730;2023-09-08T07:20:16;6.78;;;3.90;;
59273;SDS011;45044;41.572;24.730;2023-09-08T07:22:44;6.95;;;3.97;;
59273;SDS011;45044;41.572;24.730;2023-09-08T07:25:10;6.53;;;3.50;;
59273;SDS011;45044;41.572;24.730;2023-09-08T07:27:37;6.10;;;3.55;;
59273;SDS011;45044;41.572;24.730;2023-09-08T07:30:04;7.82;;;4.63;;
59273;SDS011;45044;41.572;24.730;2023-09-08T07:32:32;5.57;;;3.60;;
59273;SDS011;45044;41.572;24.730;2023-09-08T07:34:59;6.47;;;3.70;;
59273;SDS011;45044;41.572;24.730;2023-09-08T07:37:26;5.93;;;3.97;;
59273;SDS011;45044;41.572;24.730;2023-09-08T07:39:52;6.82;;;4.15;;
59273;SDS011;45044;41.572;24.730;2023-09-08T07:42:19;6.03;;;3.80;;
59273;SDS011;45044;41.572;24.730;2023-09-08T07:44:47;4.88;;;3.58;;
59273;SDS011;45044;41.572;24.730;2023-09-08T07:47:13;5.85;;;3.85;;
59273;SDS011;45044;41.572;24.730;2023-09-08T07:49:45;6.13;;;3.55;;
59273;SDS011;45044;41.572;24.730;2023-09-08T07:52:11;6.80;;;4.00;;
59273;SDS011;45044;41.572;24.730;2023-09-08T07:54:41;7.55;;;4.22;;
59273;SDS011;45044;41.572;24.730;2023-09-08T07:57:08;5.50;;;3.10;;
59273;SDS011;45044;41.572;24.730;2023-09-08T07:59:35;5.72;;;3.78;;
59273;SDS011;45044;41.572;24.730;2023-09-08T08:02:03;3.92;;;3.00;;
59273;SDS011;45044;41.572;24.730;2023-09-08T08:04:30;6.25;;;3.40;;
59273;SDS011;45044;41.572;24.730;2023-09-08T08:06:57;5.05;;;2.88;;
59273;SDS011;45044;41.572;24.730;2023-09-08T08:09:24;5.30;;;2.88;;
59273;SDS011;45044;41.572;24.730;2023-09-08T08:11:50;4.70;;;2.50;;
59273;SDS011;45044;41.572;24.730;2023-09-08T08:14:17;5.80;;;2.92;;
59273;SDS011;45044;41.572;24.730;2023-09-08T08:16:44;5.13;;;2.70;;
59273;SDS011;45044;41.572;24.730;2023-09-08T08:19:11;3.63;;;2.15;;
59273;SDS011;45044;41.572;24.730;2023-09-08T08:21:38;6.40;;;2.75;;
59273;SDS011;45044;41.572;24.730;2023-09-08T08:24:05;3.90;;;2.20;;
59273;SDS011;45044;41.572;24.730;2023-09-08T08:26:32;4.60;;;2.45;;
59273;SDS011;45044;41.572;24.730;2023-09-08T08:28:59;3.28;;;2.47;;
59273;SDS011;45044;41.572;24.730;2023-09-08T08:31:26;4.63;;;2.90;;
59273;SDS011;45044;41.572;24.730;2023-09-08T08:33:55;5.05;;;2.88;;
59273;SDS011;45044;41.572;24.730;2023-09-08T08:36:22;4.55;;;3.17;;
59273;SDS011;45044;41.572;24.730;2023-09-08T08:38:49;5.68;;;2.80;;
59273;SDS011;45044;41.572;24.730;2023-09-08T08:41:16;5.22;;;2.78;;
59273;SDS011;45044;41.572;24.730;2023-09-08T08:43:43;6.40;;;2.70;;
59273;SDS011;45044;41.572;24.730;2023-09-08T08:46:11;4.65;;;2.92;;
59273;SDS011;45044;41.572;24.730;2023-09-08T08:48:40;5.10;;;2.70;;
59273;SDS011;45044;41.572;24.730;2023-09-08T08:51:08;3.63;;;2.58;;
59273;SDS011;45044;41.572;24.730;2023-09-08T08:53:37;4.93;;;2.88;;
59273;SDS011;45044;41.572;24.730;2023-09-08T08:56:05;4.78;;;2.80;;
59273;SDS011;45044;41.572;24.730;2023-09-08T08:58:35;4.70;;;3.20;;
59273;SDS011;45044;41.572;24.730;2023-09-08T09:01:06;4.32;;;2.90;;
59273;SDS011;45044;41.572;24.730;2023-09-08T09:03:33;4.45;;;3.15;;
59273;SDS011;45044;41.572;24.730;2023-09-08T09:06:04;4.18;;;2.92;;
59273;SDS011;45044;41.572;24.730;2023-09-08T09:08:31;6.65;;;3.72;;
59273;SDS011;45044;41.572;24.730;2023-09-08T09:10:59;5.10;;;3.33;;
59273;SDS011;45044;41.572;24.730;2023-09-08T09:13:26;7.85;;;3.65;;
59273;SDS011;45044;41.572;24.730;2023-09-08T09:15:53;4.25;;;2.92;;
59273;SDS011;45044;41.572;24.730;2023-09-08T09:18:25;5.70;;;3.20;;
59273;SDS011;45044;41.572;24.730;2023-09-08T09:20:54;5.40;;;3.30;;
59273;SDS011;45044;41.572;24.730;2023-09-08T09:23:29;4.95;;;3.10;;
59273;SDS011;45044;41.572;24.730;2023-09-08T09:25:57;5.93;;;3.45;;
59273;SDS011;45044;41.572;24.730;2023-09-08T09:28:25;5.95;;;3.50;;
59273;SDS011;45044;41.572;24.730;2023-09-08T09:30:57;8.43;;;3.25;;
59273;SDS011;45044;41.572;24.730;2023-09-08T09:33:26;5.35;;;3.00;;
59273;SDS011;45044;41.572;24.730;2023-09-08T09:35:54;5.03;;;2.88;;
59273;SDS011;45044;41.572;24.730;2023-09-08T09:38:21;5.30;;;3.30;;
59273;SDS011;45044;41.572;24.730;2023-09-08T09:40:49;6.03;;;3.55;;
59273;SDS011;45044;41.572;24.730;2023-09-08T09:43:16;4.97;;;3.00;;
59273;SDS011;45044;41.572;24.730;2023-09-08T09:45:44;5.22;;;2.80;;
59273;SDS011;45044;41.572;24.730;2023-09-08T09:48:11;6.00;;;2.88;;
59273;SDS011;45044;41.572;24.730;2023-09-08T09:50:39;5.70;;;2.90;;
59273;SDS011;45044;41.572;24.730;2023-09-08T09:53:08;5.78;;;3.10;;
59273;SDS011;45044;41.572;24.730;2023-09-08T09:55:38;4.93;;;2.63;;
59273;SDS011;45044;41.572;24.730;2023-09-08T09:58:07;4.72;;;2.80;;
59273;SDS011;45044;41.572;24.730;2023-09-08T10:00:35;4.82;;;3.25;;
59273;SDS011;45044;41.572;24.730;2023-09-08T10:03:04;5.18;;;3.20;;
59273;SDS011;45044;41.572;24.730;2023-09-08T10:05:32;5.00;;;2.47;;
59273;SDS011;45044;41.572;24.730;2023-09-08T10:08:00;4.45;;;2.50;;
59273;SDS011;45044;41.572;24.730;2023-09-08T10:10:27;5.03;;;2.88;;
59273;SDS011;45044;41.572;24.730;2023-09-08T10:12:57;4.35;;;2.58;;
59273;SDS011;45044;41.572;24.730;2023-09-08T10:15:33;5.63;;;3.13;;
59273;SDS011;45044;41.572;24.730;2023-09-08T10:18:03;4.50;;;2.90;;
59273;SDS011;45044;41.572;24.730;2023-09-08T10:20:32;4.70;;;2.92;;
59273;SDS011;45044;41.572;24.730;2023-09-08T10:23:04;3.80;;;2.88;;
59273;SDS011;45044;41.572;24.730;2023-09-08T10:25:37;5.63;;;2.80;;
59273;SDS011;45044;41.572;24.730;2023-09-08T10:28:10;5.45;;;3.08;;
59273;SDS011;45044;41.572;24.730;2023-09-08T10:30:37;5.55;;;3.22;;
59273;SDS011;45044;41.572;24.730;2023-09-08T10:33:04;4.90;;;2.10;;
59273;SDS011;45044;41.572;24.730;2023-09-08T10:35:32;4.88;;;2.78;;
59273;SDS011;45044;41.572;24.730;2023-09-08T10:41:25;4.65;;;2.88;;
59273;SDS011;45044;41.572;24.730;2023-09-08T10:43:44;4.53;;;3.15;;
59273;SDS011;45044;41.572;24.730;2023-09-08T10:46:12;4.95;;;3.30;;
59273;SDS011;45044;41.572;24.730;2023-09-08T10:48:48;8.63;;;4.22;;
59273;SDS011;45044;41.572;24.730;2023-09-08T10:51:15;4.97;;;3.83;;
59273;SDS011;45044;41.572;24.730;2023-09-08T10:53:46;5.00;;;3.42;;
59273;SDS011;45044;41.572;24.730;2023-09-08T10:56:14;4.97;;;3.17;;
59273;SDS011;45044;41.572;24.730;2023-09-08T10:58:43;4.80;;;3.30;;
59273;SDS011;45044;41.572;24.730;2023-09-08T11:01:17;4.53;;;2.83;;
59273;SDS011;45044;41.572;24.730;2023-09-08T11:03:47;5.25;;;3.17;;
59273;SDS011;45044;41.572;24.730;2023-09-08T11:06:17;5.13;;;3.05;;
59273;SDS011;45044;41.572;24.730;2023-09-08T11:08:45;5.90;;;2.95;;
59273;SDS011;45044;41.572;24.730;2023-09-08T11:11:14;4.32;;;3.17;;
59273;SDS011;45044;41.572;24.730;2023-09-08T11:13:42;5.13;;;3.70;;
59273;SDS011;45044;41.572;24.730;2023-09-08T11:16:13;7.93;;;4.00;;
59273;SDS011;45044;41.572;24.730;2023-09-08T11:18:41;6.07;;;4.20;;
59273;SDS011;45044;41.572;24.730;2023-09-08T11:21:09;5.82;;;4.20;;
59273;SDS011;45044;41.572;24.730;2023-09-08T11:23:37;7.13;;;4.97;;
59273;SDS011;45044;41.572;24.730;2023-09-08T11:26:04;5.72;;;4.45;;
59273;SDS011;45044;41.572;24.730;2023-09-08T11:28:33;5.35;;;4.65;;
59273;SDS011;45044;41.572;24.730;2023-09-08T11:31:00;5.93;;;4.60;;
59273;SDS011;45044;41.572;24.730;2023-09-08T11:33:32;5.45;;;3.85;;
59273;SDS011;45044;41.572;24.730;2023-09-08T11:36:01;6.00;;;3.95;;
59273;SDS011;45044;41.572;24.730;2023-09-08T11:38:28;5.75;;;3.90;;
59273;SDS011;45044;41.572;24.730;2023-09-08T11:40:57;5.25;;;3.55;;
59273;SDS011;45044;41.572;24.730;2023-09-08T11:43:27;5.30;;;3.10;;
59273;SDS011;45044;41.572;24.730;2023-09-08T11:45:55;5.65;;;3.95;;
59273;SDS011;45044;41.572;24.730;2023-09-08T11:48:23;4.90;;;2.90;;
59273;SDS011;45044;41.572;24.730;2023-09-08T11:50:54;5.40;;;3.60;;
59273;SDS011;45044;41.572;24.730;2023-09-08T11:53:21;4.45;;;3.22;;
59273;SDS011;45044;41.572;24.730;2023-09-08T11:55:49;5.38;;;2.95;;
59273;SDS011;45044;41.572;24.730;2023-09-08T11:58:18;5.18;;;3.50;;
59273;SDS011;45044;41.572;24.730;2023-09-08T12:00:46;5.18;;;3.70;;
59273;SDS011;45044;41.572;24.730;2023-09-08T12:03:16;5.43;;;4.10;;
59273;SDS011;45044;41.572;24.730;2023-09-08T12:05:44;5.88;;;3.60;;
59273;SDS011;45044;41.572;24.730;2023-09-08T12:08:16;6.13;;;4.00;;
59273;SDS011;45044;41.572;24.730;2023-09-08T12:10:43;6.70;;;4.70;;
59273;SDS011;45044;41.572;24.730;2023-09-08T12:13:10;5.40;;;4.53;;
59273;SDS011;45044;41.572;24.730;2023-09-08T12:15:40;6.68;;;5.60;;
59273;SDS011;45044;41.572;24.730;2023-09-08T12:18:09;7.30;;;5.85;;
59273;SDS011;45044;41.572;24.730;2023-09-08T12:20:38;6.07;;;4.68;;
59273;SDS011;45044;41.572;24.730;2023-09-08T12:23:06;6.57;;;5.32;;
59273;SDS011;45044;41.572;24.730;2023-09-08T12:25:45;5.57;;;4.43;;
59273;SDS011;45044;41.572;24.730;2023-09-08T12:28:15;6.68;;;5.22;;
59273;SDS011;45044;41.572;24.730;2023-09-08T12:30:44;6.60;;;4.22;;
59273;SDS011;45044;41.572;24.730;2023-09-08T12:33:11;5.70;;;4.07;;
59273;SDS011;45044;41.572;24.730;2023-09-08T12:35:45;5.57;;;3.90;;
59273;SDS011;45044;41.572;24.730;2023-09-08T12:38:12;5.65;;;4.25;;
59273;SDS011;45044;41.572;24.730;2023-09-08T12:40:40;5.90;;;4.10;;
59273;SDS011;45044;41.572;24.730;2023-09-08T12:43:07;6.03;;;4.80;;
59273;SDS011;45044;41.572;24.730;2023-09-08T12:45:50;4.90;;;4.40;;
59273;SDS011;45044;41.572;24.730;2023-09-08T12:48:17;6.35;;;4.60;;
59273;SDS011;45044;41.572;24.730;2023-09-08T12:50:44;6.22;;;5.38;;
59273;SDS011;45044;41.572;24.730;2023-09-08T12:53:11;6.72;;;4.57;;
59273;SDS011;45044;41.572;24.730;2023-09-08T12:55:37;6.32;;;4.28;;
59273;SDS011;45044;41.572;24.730;2023-09-08T12:58:04;6.78;;;5.40;;
59273;SDS011;45044;41.572;24.730;2023-09-08T13:00:31;6.60;;;5.30;;
59273;SDS011;45044;41.572;24.730;2023-09-08T13:02:58;5.40;;;4.90;;
59273;SDS011;45044;41.572;24.730;2023-09-08T13:05:26;6.45;;;5.25;;
59273;SDS011;45044;41.572;24.730;2023-09-08T13:07:53;6.50;;;5.00;;
59273;SDS011;45044;41.572;24.730;2023-09-08T13:10:20;6.45;;;4.97;;
59273;SDS011;45044;41.572;24.730;2023-09-08T13:12:47;6.00;;;4.95;;
59273;SDS011;45044;41.572;24.730;2023-09-08T13:15:15;6.18;;;4.78;;
59273;SDS011;45044;41.572;24.730;2023-09-08T13:17:43;5.30;;;4.20;;
59273;SDS011;45044;41.572;24.730;2023-09-08T13:20:10;6.63;;;4.78;;
59273;SDS011;45044;41.572;24.730;2023-09-08T13:22:37;6.40;;;4.78;;
59273;SDS011;45044;41.572;24.730;2023-09-08T13:25:04;5.70;;;4.82;;
59273;SDS011;45044;41.572;24.730;2023-09-08T13:27:31;5.82;;;4.78;;
59273;SDS011;45044;41.572;24.730;2023-09-08T13:30:07;5.95;;;4.50;;
59273;SDS011;45044;41.572;24.730;2023-09-08T13:32:38;6.95;;;4.53;;
59273;SDS011;45044;41.572;24.730;2023-09-08T13:35:06;6.93;;;5.18;;
59273;SDS011;45044;41.572;24.730;2023-09-08T13:37:33;6.47;;;5.00;;
59273;SDS011;45044;41.572;24.730;2023-09-08T13:40:06;7.85;;;5.18;;
59273;SDS011;45044;41.572;24.730;2023-09-08T13:42:35;8.18;;;5.22;;
59273;SDS011;45044;41.572;24.730;2023-09-08T13:45:02;6.10;;;4.68;;
59273;SDS011;45044;41.572;24.730;2023-09-08T13:47:29;5.65;;;4.55;;
59273;SDS011;45044;41.572;24.730;2023-09-08T13:49:58;6.78;;;4.85;;
59273;SDS011;45044;41.572;24.730;2023-09-08T13:52:28;8.07;;;5.30;;
59273;SDS011;45044;41.572;24.730;2023-09-08T13:54:58;6.72;;;5.22;;
59273;SDS011;45044;41.572;24.730;2023-09-08T13:57:28;6.13;;;4.65;;
59273;SDS011;45044;41.572;24.730;2023-09-08T13:59:55;9.48;;;4.97;;
59273;SDS011;45044;41.572;24.730;2023-09-08T14:02:24;7.28;;;4.38;;
59273;SDS011;45044;41.572;24.730;2023-09-08T14:05:08;7.25;;;4.45;;
59273;SDS011;45044;41.572;24.730;2023-09-08T14:07:36;5.85;;;4.20;;
59273;SDS011;45044;41.572;24.730;2023-09-08T14:10:12;5.95;;;4.30;;
59273;SDS011;45044;41.572;24.730;2023-09-08T14:12:55;5.22;;;4.28;;
59273;SDS011;45044;41.572;24.730;2023-09-08T14:15:22;5.72;;;4.18;;
59273;SDS011;45044;41.572;24.730;2023-09-08T14:17:49;6.55;;;4.10;;
59273;SDS011;45044;41.572;24.730;2023-09-08T14:20:16;7.78;;;4.85;;
59273;SDS011;45044;41.572;24.730;2023-09-08T14:22:43;5.60;;;4.97;;
59273;SDS011;45044;41.572;24.730;2023-09-08T14:25:10;6.63;;;4.55;;
59273;SDS011;45044;41.572;24.730;2023-09-08T14:27:36;7.40;;;5.20;;
59273;SDS011;45044;41.572;24.730;2023-09-08T14:30:04;6.90;;;4.60;;
59273;SDS011;45044;41.572;24.730;2023-09-08T14:32:31;7.80;;;4.65;;
59273;SDS011;45044;41.572;24.730;2023-09-08T14:34:58;6.57;;;5.03;;
59273;SDS011;45044;41.572;24.730;2023-09-08T14:37:25;6.90;;;4.53;;
59273;SDS011;45044;41.572;24.730;2023-09-08T14:39:52;5.53;;;4.25;;
59273;SDS011;45044;41.572;24.730;2023-09-08T14:42:19;4.72;;;3.80;;
59273;SDS011;45044;41.572;24.730;2023-09-08T14:44:45;7.13;;;4.90;;